createdAt,value
2023-11-23T00:01:23.118Z,0.83
2023-11-23T00:02:56.081Z,0.80
2023-11-23T00:04:28.977Z,0.76
2023-11-23T00:06:01.831Z,0.73
2023-11-23T00:07:35.795Z,0.76
2023-11-23T00:09:08.727Z,0.80
2023-11-23T00:10:41.728Z,0.82
2023-11-23T00:12:14.842Z,0.82
2023-11-23T00:13:47.956Z,0.87
2023-11-23T00:15:21.124Z,0.90
2023-11-23T00:16:54.321Z,0.88
2023-11-23T00:18:27.584Z,0.88
2023-11-23T00:20:01.275Z,0.91
2023-11-23T00:21:34.395Z,0.90
2023-11-23T00:23:07.278Z,0.87
2023-11-23T00:24:40.572Z,0.85
2023-11-23T00:26:13.453Z,0.86
2023-11-23T00:27:46.636Z,0.85
2023-11-23T00:29:19.436Z,0.86
2023-11-23T00:30:52.296Z,0.87
2023-11-23T00:32:25.198Z,0.85
2023-11-23T00:33:58.345Z,0.81
2023-11-23T00:35:32.369Z,0.87
2023-11-23T00:37:05.525Z,0.86
2023-11-23T00:38:38.781Z,0.87
2023-11-23T00:43:58.088Z,0.73
2023-11-23T00:45:31.620Z,0.76
2023-11-23T00:47:04.973Z,0.77
2023-11-23T00:48:38.269Z,0.76
2023-11-23T00:50:11.415Z,0.80
2023-11-23T00:51:44.776Z,0.80
2023-11-23T00:53:17.717Z,0.77
2023-11-23T00:54:50.708Z,0.80
2023-11-23T00:56:23.604Z,0.83
2023-11-23T00:57:56.660Z,0.85
2023-11-23T00:59:29.609Z,0.84
2023-11-23T01:01:02.630Z,0.86
2023-11-23T01:02:35.728Z,0.88
2023-11-23T01:04:08.715Z,0.84
2023-11-23T01:05:41.633Z,0.82
2023-11-23T01:07:14.495Z,0.81
2023-11-23T01:08:47.513Z,0.79
2023-11-23T01:10:20.451Z,0.74
2023-11-23T01:11:53.551Z,0.66
2023-11-23T01:13:26.726Z,0.62
2023-11-23T01:14:59.900Z,0.59
2023-11-23T01:16:32.961Z,0.62
2023-11-23T01:18:06.189Z,0.65
2023-11-23T01:19:39.115Z,0.61
2023-11-23T01:21:12.305Z,0.62
2023-11-23T01:22:45.304Z,0.60
2023-11-23T01:24:18.459Z,0.59
2023-11-23T01:25:51.643Z,0.60
2023-11-23T01:27:24.653Z,0.57
2023-11-23T01:28:57.813Z,0.55
2023-11-23T01:30:30.869Z,0.52
2023-11-23T01:32:04.157Z,0.46
2023-11-23T01:33:37.436Z,0.42
2023-11-23T01:35:10.463Z,0.42
2023-11-23T01:36:43.412Z,0.39
2023-11-23T01:38:16.440Z,0.37
2023-11-23T01:39:49.680Z,0.37
2023-11-23T01:41:23.641Z,0.38
2023-11-23T01:43:08.412Z,0.37
2023-11-23T01:44:41.370Z,0.38
2023-11-23T01:46:15.529Z,0.39
2023-11-23T01:47:49.156Z,0.44
2023-11-23T01:49:24.510Z,0.42
2023-11-23T01:50:58.744Z,0.42
2023-11-23T01:52:32.642Z,0.42
2023-11-23T01:54:06.286Z,0.46
2023-11-23T01:55:39.679Z,0.49
2023-11-23T01:57:13.608Z,0.50
2023-11-23T01:58:47.448Z,0.51
2023-11-23T02:00:21.029Z,0.54
2023-11-23T02:02:18.614Z,0.53
2023-11-23T02:04:02.781Z,0.40
2023-11-23T02:05:35.760Z,0.49
2023-11-23T02:07:09.441Z,0.52
2023-11-23T02:08:42.682Z,0.54
2023-11-23T02:10:15.933Z,0.55
2023-11-23T02:11:49.410Z,0.56
2023-11-23T02:13:23.160Z,0.58
2023-11-23T02:14:57.797Z,0.55
2023-11-23T02:16:30.887Z,0.51
2023-11-23T02:18:05.871Z,0.50
2023-11-23T02:19:38.841Z,0.53
2023-11-23T02:21:12.674Z,0.49
2023-11-23T02:22:45.774Z,0.49
2023-11-23T02:24:18.913Z,0.43
2023-11-23T02:25:51.814Z,0.39
2023-11-23T02:27:24.817Z,0.39
2023-11-23T02:28:57.771Z,0.35
2023-11-23T02:30:30.782Z,0.35
2023-11-23T02:32:11.032Z,0.40
2023-11-23T02:33:44.189Z,0.42
2023-11-23T02:35:17.852Z,0.43
2023-11-23T02:36:51.141Z,0.46
2023-11-23T02:38:24.258Z,0.47
2023-11-23T02:39:57.076Z,0.44
2023-11-23T02:41:29.921Z,0.50
2023-11-23T02:43:07.619Z,0.51
2023-11-23T02:44:40.776Z,0.52
2023-11-23T02:46:14.384Z,0.53
2023-11-23T02:47:47.399Z,0.53
2023-11-23T02:49:20.552Z,0.52
2023-11-23T02:50:53.639Z,0.48
2023-11-23T02:52:26.483Z,0.48
2023-11-23T02:53:59.403Z,0.46
2023-11-23T02:55:32.453Z,0.46
2023-11-23T02:57:05.757Z,0.48
2023-11-23T02:58:40.168Z,0.47
2023-11-23T03:00:13.845Z,0.44
2023-11-23T03:01:46.862Z,0.49
2023-11-23T03:03:20.070Z,0.47
2023-11-23T03:04:53.073Z,0.46
2023-11-23T03:06:26.010Z,0.49
2023-11-23T03:07:59.141Z,0.49
2023-11-23T03:09:32.278Z,0.46
2023-11-23T03:11:05.247Z,0.43
2023-11-23T03:12:38.351Z,0.43
2023-11-23T03:14:11.541Z,0.45
2023-11-23T03:15:44.526Z,0.43
2023-11-23T03:17:18.635Z,0.41
2023-11-23T03:18:52.010Z,0.34
2023-11-23T03:20:25.598Z,0.27
2023-11-23T03:21:58.859Z,0.18
2023-11-23T03:23:31.873Z,0.18
2023-11-23T03:25:05.661Z,0.12
2023-11-23T03:26:39.258Z,0.06
2023-11-23T03:28:12.345Z,0.02
2023-11-23T03:29:45.343Z,-0.05
2023-11-23T03:31:18.402Z,-0.07
2023-11-23T03:32:52.316Z,-0.09
2023-11-23T03:34:25.347Z,-0.12
2023-11-23T03:35:58.400Z,-0.16
2023-11-23T03:37:31.883Z,-0.24
2023-11-23T03:39:07.002Z,-0.25
2023-11-23T03:40:40.076Z,-0.26
2023-11-23T03:42:13.055Z,-0.26
2023-11-23T03:43:46.044Z,-0.24
2023-11-23T03:45:19.265Z,-0.25
2023-11-23T03:46:52.178Z,-0.29
2023-11-23T03:48:25.299Z,-0.35
2023-11-23T03:49:58.246Z,-0.29
2023-11-23T03:51:31.211Z,-0.28
2023-11-23T03:53:04.195Z,-0.24
2023-11-23T03:54:37.171Z,-0.19
2023-11-23T03:56:15.162Z,-0.17
2023-11-23T03:57:48.106Z,-0.16
2023-11-23T03:59:21.266Z,-0.12
2023-11-23T04:00:54.082Z,-0.08
2023-11-23T04:02:27.802Z,-0.04
2023-11-23T04:04:01.121Z,0.00
2023-11-23T04:05:34.129Z,0.04
2023-11-23T04:07:07.012Z,0.10
2023-11-23T04:08:41.816Z,0.09
2023-11-23T04:10:16.304Z,0.11
2023-11-23T04:11:49.334Z,0.16
2023-11-23T04:13:22.417Z,0.18
2023-11-23T04:14:55.673Z,0.22
2023-11-23T04:16:28.672Z,0.25
2023-11-23T04:18:01.783Z,0.28
2023-11-23T04:19:34.912Z,0.32
2023-11-23T04:21:07.854Z,0.29
2023-11-23T04:22:40.912Z,0.31
2023-11-23T04:24:17.152Z,0.32
2023-11-23T04:25:50.094Z,0.36
2023-11-23T04:27:23.015Z,0.30
2023-11-23T04:28:57.699Z,0.35
2023-11-23T04:30:30.656Z,0.35
2023-11-23T04:32:03.879Z,0.36
2023-11-23T04:33:36.915Z,0.36
2023-11-23T04:35:10.386Z,0.36
2023-11-23T04:36:43.219Z,0.41
2023-11-23T04:38:16.213Z,0.44
2023-11-23T04:39:49.234Z,0.46
2023-11-23T04:41:22.282Z,0.49
2023-11-23T04:42:55.255Z,0.47
2023-11-23T04:44:28.236Z,0.47
2023-11-23T04:46:01.447Z,0.49
2023-11-23T04:47:34.531Z,0.50
2023-11-23T04:49:07.379Z,0.49
2023-11-23T04:50:40.972Z,0.47
2023-11-23T04:52:14.849Z,0.46
2023-11-23T04:53:47.785Z,0.45
2023-11-23T04:55:21.341Z,0.45
2023-11-23T04:56:54.590Z,0.44
2023-11-23T04:58:27.552Z,0.40
2023-11-23T05:00:00.638Z,0.35
2023-11-23T05:01:33.737Z,0.32
2023-11-23T05:03:06.582Z,0.30
2023-11-23T05:04:39.466Z,0.29
2023-11-23T05:06:12.500Z,0.24
2023-11-23T05:07:48.553Z,0.18
2023-11-23T05:09:21.574Z,0.18
2023-11-23T05:10:54.431Z,0.15
2023-11-23T05:12:27.461Z,0.11
2023-11-23T05:14:07.722Z,0.09
2023-11-23T05:15:41.342Z,0.07
2023-11-23T05:17:16.903Z,0.04
2023-11-23T05:18:49.914Z,0.03
2023-11-23T05:20:23.014Z,0.01
2023-11-23T05:21:56.088Z,-0.03
2023-11-23T05:23:29.196Z,-0.02
2023-11-23T05:25:02.089Z,-0.03
2023-11-23T05:26:35.383Z,-0.04
2023-11-23T05:28:08.344Z,-0.05
2023-11-23T05:29:41.441Z,-0.05
2023-11-23T05:31:15.025Z,-0.07
2023-11-23T05:32:48.313Z,-0.06
2023-11-23T05:34:21.314Z,-0.04
2023-11-23T05:35:54.499Z,-0.07
2023-11-23T05:37:27.467Z,-0.03
2023-11-23T05:39:00.558Z,-0.02
2023-11-23T05:40:33.714Z,-0.03
2023-11-23T05:42:07.195Z,-0.01
2023-11-23T05:43:40.216Z,0.01
2023-11-23T05:45:13.391Z,0.02
2023-11-23T05:46:46.628Z,0.07
2023-11-23T05:48:20.280Z,0.10
2023-11-23T05:49:53.693Z,0.16
2023-11-23T05:51:26.851Z,0.17
2023-11-23T05:52:59.739Z,0.25
2023-11-23T05:54:33.128Z,0.28
2023-11-23T05:56:06.561Z,0.30
2023-11-23T05:57:39.515Z,0.35
2023-11-23T05:59:12.594Z,0.38
2023-11-23T06:00:46.016Z,0.43
2023-11-23T06:02:20.126Z,0.47
2023-11-23T06:03:53.330Z,0.52
2023-11-23T06:05:26.587Z,0.57
2023-11-23T06:06:59.602Z,0.56
2023-11-23T06:08:32.524Z,0.62
2023-11-23T06:10:05.850Z,0.65
2023-11-23T06:11:39.163Z,0.68
2023-11-23T06:13:12.132Z,0.70
2023-11-23T06:14:45.292Z,0.75
2023-11-23T06:16:20.349Z,0.80
2023-11-23T06:18:04.606Z,0.85
2023-11-23T06:19:44.814Z,0.67
2023-11-23T06:21:17.932Z,0.75
2023-11-23T06:22:50.831Z,0.96
2023-11-23T06:24:24.174Z,0.97
2023-11-23T06:25:58.225Z,1.01
2023-11-23T06:27:31.120Z,1.04
2023-11-23T06:29:04.002Z,1.10
2023-11-23T06:30:37.253Z,1.13
2023-11-23T06:32:10.173Z,1.15
2023-11-23T06:33:43.101Z,1.14
2023-11-23T06:35:16.518Z,1.14
2023-11-23T06:36:51.575Z,1.17
2023-11-23T06:38:24.770Z,1.16
2023-11-23T06:39:58.628Z,1.19
2023-11-23T06:41:31.949Z,1.19
2023-11-23T06:43:05.901Z,1.19
2023-11-23T06:44:38.851Z,1.25
2023-11-23T06:46:11.810Z,1.33
2023-11-23T06:47:44.779Z,1.41
2023-11-23T06:49:17.701Z,1.43
2023-11-23T06:50:50.549Z,1.43
2023-11-23T06:52:23.614Z,1.47
2023-11-23T06:53:56.663Z,1.43
2023-11-23T06:55:29.590Z,1.46
2023-11-23T06:57:02.720Z,1.49
2023-11-23T06:58:35.892Z,1.53
2023-11-23T07:00:10.080Z,1.55
2023-11-23T07:01:43.729Z,1.58
2023-11-23T07:03:17.322Z,1.59
2023-11-23T07:04:50.731Z,1.64
2023-11-23T07:06:23.639Z,1.66
2023-11-23T07:07:56.755Z,1.68
2023-11-23T07:09:29.643Z,1.69
2023-11-23T07:11:04.309Z,1.66
2023-11-23T07:12:37.241Z,1.70
2023-11-23T07:14:10.230Z,1.69
2023-11-23T07:15:43.664Z,1.69
2023-11-23T07:17:17.154Z,1.70
2023-11-23T07:18:50.374Z,1.76
2023-11-23T07:20:23.591Z,1.78
2023-11-23T07:21:56.644Z,1.79
2023-11-23T07:23:29.897Z,1.87
2023-11-23T07:25:04.485Z,1.93
2023-11-23T07:26:37.606Z,1.97
2023-11-23T07:28:10.977Z,1.98
2023-11-23T07:29:43.992Z,2.03
2023-11-23T07:31:16.974Z,2.09
2023-11-23T07:32:50.027Z,2.14
2023-11-23T07:34:23.410Z,2.17
2023-11-23T07:35:56.903Z,2.27
2023-11-23T07:37:30.645Z,2.35
2023-11-23T07:39:04.098Z,2.42
2023-11-23T07:40:37.055Z,2.43
2023-11-23T07:42:10.434Z,2.47
2023-11-23T07:43:43.583Z,2.51
2023-11-23T07:45:16.762Z,2.52
2023-11-23T07:46:49.704Z,2.57
2023-11-23T07:48:22.848Z,2.65
2023-11-23T07:49:55.786Z,2.66
2023-11-23T07:51:28.770Z,2.66
2023-11-23T07:53:01.698Z,2.63
2023-11-23T07:54:34.724Z,2.71
2023-11-23T07:56:09.829Z,2.77
2023-11-23T07:57:44.396Z,2.80
2023-11-23T07:59:17.513Z,2.85
2023-11-23T08:00:50.935Z,2.83
2023-11-23T08:02:27.160Z,2.84
2023-11-23T08:04:00.368Z,2.86
2023-11-23T08:05:33.483Z,2.89
2023-11-23T08:07:06.299Z,2.91
2023-11-23T08:08:39.354Z,2.92
2023-11-23T08:10:12.209Z,2.97
2023-11-23T08:11:45.087Z,3.07
2023-11-23T08:13:18.021Z,3.14
2023-11-23T08:14:50.916Z,3.25
2023-11-23T08:16:23.855Z,3.35
2023-11-23T08:18:04.757Z,3.47
2023-11-23T08:19:41.112Z,3.59
2023-11-23T08:21:14.275Z,3.65
2023-11-23T08:22:47.188Z,3.74
2023-11-23T08:24:20.103Z,3.81
2023-11-23T08:25:54.440Z,3.77
2023-11-23T08:27:27.454Z,3.79
2023-11-23T08:29:00.285Z,3.81
2023-11-23T08:30:33.468Z,3.86
2023-11-23T08:32:07.932Z,3.96
2023-11-23T08:33:40.904Z,3.99
2023-11-23T08:35:13.813Z,4.08
2023-11-23T08:36:46.757Z,4.23
2023-11-23T08:38:19.861Z,4.27
2023-11-23T08:39:52.915Z,4.27
2023-11-23T08:41:26.569Z,4.30
2023-11-23T08:42:59.600Z,4.24
2023-11-23T08:44:32.793Z,4.22
2023-11-23T08:46:06.585Z,4.17
2023-11-23T08:47:39.455Z,4.15
2023-11-23T08:49:12.404Z,4.13
2023-11-23T08:50:45.310Z,4.10
2023-11-23T08:52:18.249Z,4.00
2023-11-23T08:53:51.383Z,3.85
2023-11-23T08:55:25.151Z,3.72
2023-11-23T08:56:58.252Z,3.66
2023-11-23T08:58:31.141Z,3.59
2023-11-23T09:00:06.129Z,3.50
2023-11-23T09:01:40.613Z,3.41
2023-11-23T09:03:15.182Z,3.34
2023-11-23T09:04:50.165Z,3.32
2023-11-23T09:06:24.188Z,3.32
2023-11-23T09:07:57.229Z,3.31
2023-11-23T09:09:30.699Z,3.32
2023-11-23T09:11:03.810Z,3.34
2023-11-23T09:12:37.810Z,3.40
2023-11-23T09:14:10.787Z,3.47
2023-11-23T09:15:43.778Z,3.68
2023-11-23T09:17:19.701Z,3.94
2023-11-23T09:18:52.851Z,4.18
2023-11-23T09:20:25.896Z,4.38
2023-11-23T09:21:59.053Z,4.58
2023-11-23T09:23:32.096Z,4.82
2023-11-23T09:25:05.454Z,4.98
2023-11-23T09:26:38.408Z,4.95
2023-11-23T09:28:11.361Z,4.89
2023-11-23T09:29:44.249Z,4.88
2023-11-23T09:31:17.295Z,5.02
2023-11-23T09:32:51.227Z,5.09
2023-11-23T09:34:24.299Z,5.24
2023-11-23T09:35:57.245Z,5.31
2023-11-23T09:37:30.149Z,5.32
2023-11-23T09:39:03.225Z,5.37
2023-11-23T09:40:38.152Z,5.51
2023-11-23T09:42:15.719Z,5.53
2023-11-23T09:43:51.076Z,5.67
2023-11-23T09:45:26.543Z,5.75
2023-11-23T09:47:00.445Z,5.82
2023-11-23T09:48:40.024Z,5.85
2023-11-23T09:50:13.647Z,5.94
2023-11-23T09:51:53.207Z,6.00
2023-11-23T09:53:27.616Z,6.06
2023-11-23T09:55:04.065Z,6.06
2023-11-23T09:56:37.266Z,6.05
2023-11-23T09:58:10.480Z,5.99
2023-11-23T09:59:43.514Z,6.01
2023-11-23T10:01:16.538Z,6.01
2023-11-23T10:02:50.779Z,6.02
2023-11-23T10:04:23.800Z,6.00
2023-11-23T10:05:56.801Z,6.01
2023-11-23T10:07:31.430Z,6.00
2023-11-23T10:09:06.062Z,6.05
2023-11-23T10:10:39.226Z,6.16
2023-11-23T10:12:12.489Z,6.22
2023-11-23T10:13:45.853Z,6.16
2023-11-23T10:15:19.514Z,6.04
2023-11-23T10:16:52.806Z,5.97
2023-11-23T10:18:40.278Z,5.90
2023-11-23T10:20:15.204Z,5.91
2023-11-23T10:21:48.491Z,5.89
2023-11-23T10:23:22.674Z,5.97
2023-11-23T10:24:55.523Z,6.00
2023-11-23T10:26:28.815Z,5.90
2023-11-23T10:28:03.280Z,5.92
2023-11-23T10:29:36.266Z,5.94
2023-11-23T10:31:12.251Z,5.95
2023-11-23T10:32:48.486Z,5.99
2023-11-23T10:34:21.546Z,6.01
2023-11-23T10:35:56.884Z,5.97
2023-11-23T10:37:30.745Z,5.93
2023-11-23T10:39:08.967Z,5.88
2023-11-23T10:40:42.169Z,5.92
2023-11-23T10:42:18.257Z,5.93
2023-11-23T10:43:51.498Z,5.98
2023-11-23T10:45:25.913Z,5.97
2023-11-23T10:47:02.079Z,6.03
2023-11-23T10:48:36.554Z,6.12
2023-11-23T10:50:10.692Z,6.15
2023-11-23T10:51:45.716Z,6.22
2023-11-23T10:53:19.141Z,6.25
2023-11-23T10:54:52.276Z,6.31
2023-11-23T10:56:32.473Z,6.35
2023-11-23T10:58:13.470Z,6.35
2023-11-23T10:59:48.443Z,6.34
2023-11-23T11:01:26.057Z,6.38
2023-11-23T11:03:04.929Z,6.40
2023-11-23T11:04:37.923Z,6.53
2023-11-23T11:06:15.077Z,6.59
2023-11-23T11:08:21.815Z,6.61
2023-11-23T11:09:59.067Z,6.68
2023-11-23T11:11:35.942Z,6.73
2023-11-23T11:13:18.699Z,6.81
2023-11-23T11:14:51.850Z,6.83
2023-11-23T11:16:37.339Z,6.82
2023-11-23T11:18:10.278Z,6.81
2023-11-23T11:19:48.063Z,6.81
2023-11-23T11:21:22.035Z,6.82
2023-11-23T11:22:56.910Z,6.82
2023-11-23T11:24:29.814Z,6.85
2023-11-23T11:26:23.758Z,6.84
2023-11-23T11:27:56.718Z,6.88
2023-11-23T11:29:30.701Z,6.88
2023-11-23T11:31:11.950Z,6.90
2023-11-23T11:32:45.163Z,6.93
2023-11-23T11:34:22.653Z,7.00
2023-11-23T11:35:55.988Z,7.06
2023-11-23T11:37:31.820Z,7.05
2023-11-23T11:39:05.336Z,7.05
2023-11-23T11:40:39.026Z,7.09
2023-11-23T11:42:12.297Z,7.13
2023-11-23T11:43:46.432Z,7.18
2023-11-23T13:07:28.430Z,7.26
2023-11-23T13:09:02.144Z,7.25
2023-11-23T13:10:35.470Z,7.26
2023-11-23T13:12:08.858Z,7.26
2023-11-23T13:13:42.140Z,7.26
2023-11-23T13:15:15.334Z,7.28
2023-11-23T13:16:48.580Z,7.31
2023-11-23T13:18:21.593Z,7.31
2023-11-23T13:19:55.849Z,7.34
2023-11-23T13:21:29.526Z,7.34
2023-11-23T13:23:03.806Z,7.32
2023-11-23T13:24:36.741Z,7.28
2023-11-23T13:26:09.671Z,7.28
2023-11-23T13:27:42.701Z,7.25
2023-11-23T13:29:15.828Z,7.19
2023-11-23T13:30:48.791Z,7.16
2023-11-23T13:32:21.703Z,7.14
2023-11-23T13:33:54.726Z,7.12
2023-11-23T13:37:22.438Z,7.11
2023-11-23T13:38:56.309Z,7.12
2023-11-23T13:40:29.185Z,7.09
2023-11-23T13:42:02.194Z,7.14
2023-11-23T13:43:35.099Z,7.13
2023-11-23T13:45:08.910Z,7.13
2023-11-23T13:46:42.097Z,7.12
2023-11-23T13:48:15.467Z,7.10
2023-11-23T13:49:48.447Z,7.12
2023-11-23T13:51:22.444Z,7.08
2023-11-23T13:52:55.988Z,7.12
2023-11-23T13:54:28.941Z,7.16
2023-11-23T13:56:01.902Z,7.20
2023-11-23T13:57:35.447Z,7.23
2023-11-23T13:59:08.458Z,7.21
2023-11-23T14:00:41.318Z,7.17
2023-11-23T14:02:14.442Z,7.16
2023-11-23T14:03:47.751Z,7.14
2023-11-23T14:05:20.953Z,7.15
2023-11-23T14:06:54.381Z,7.11
2023-11-23T14:08:27.264Z,7.12
2023-11-23T14:10:00.790Z,7.10
2023-11-23T14:11:33.670Z,7.10
2023-11-23T14:13:06.528Z,7.11
2023-11-23T14:14:39.678Z,7.12
2023-11-23T14:16:12.664Z,7.13
2023-11-23T14:17:49.092Z,7.11
2023-11-23T14:19:22.117Z,7.12
2023-11-23T14:20:55.241Z,7.11
2023-11-23T14:22:29.381Z,7.14
2023-11-23T14:24:02.485Z,7.15
2023-11-23T14:25:35.418Z,7.12
2023-11-23T14:27:08.639Z,7.12
2023-11-23T14:28:41.619Z,7.12
2023-11-23T14:30:15.404Z,7.09
2023-11-23T14:31:51.608Z,7.07
2023-11-23T14:33:24.996Z,7.09
2023-11-23T14:34:58.677Z,7.07
2023-11-23T14:36:31.542Z,7.02
2023-11-23T14:38:05.041Z,6.99
2023-11-23T14:39:37.912Z,6.96
2023-11-23T14:41:11.698Z,6.97
2023-11-23T14:42:55.915Z,7.00
2023-11-23T14:44:30.040Z,7.00
2023-11-23T14:46:03.312Z,6.96
2023-11-23T14:47:36.278Z,6.95
2023-11-23T14:49:09.214Z,6.97
2023-11-23T14:50:42.694Z,6.94
2023-11-23T14:52:15.864Z,6.98
2023-11-23T14:53:51.084Z,6.98
2023-11-23T14:55:24.531Z,6.99
2023-11-23T14:56:57.436Z,6.94
2023-11-23T14:58:30.407Z,6.93
2023-11-23T15:00:03.555Z,6.93
2023-11-23T15:01:37.524Z,6.93
2023-11-23T15:03:10.696Z,6.91
2023-11-23T15:04:43.665Z,6.93
2023-11-23T15:06:16.885Z,6.95
2023-11-23T15:07:49.882Z,6.96
2023-11-23T15:09:22.922Z,6.95
2023-11-23T15:10:56.037Z,6.98
2023-11-23T15:12:29.096Z,6.99
2023-11-23T15:14:02.157Z,6.98
2023-11-23T15:15:37.000Z,6.97
2023-11-23T15:17:10.305Z,7.03
2023-11-23T15:18:43.376Z,7.07
2023-11-23T15:20:17.281Z,7.07
2023-11-23T15:21:50.611Z,7.07
2023-11-23T15:23:23.557Z,7.10
2023-11-23T15:25:05.434Z,7.10
2023-11-23T15:26:41.410Z,7.09
2023-11-23T15:28:14.366Z,7.11
2023-11-23T15:29:47.534Z,7.14
2023-11-23T15:31:20.660Z,7.15
2023-11-23T15:32:53.759Z,7.20
2023-11-23T15:34:27.195Z,7.19
2023-11-23T15:36:00.186Z,7.24
2023-11-23T15:37:33.185Z,7.26
2023-11-23T15:39:06.294Z,7.30
2023-11-23T15:40:39.351Z,7.34
2023-11-23T15:42:12.450Z,7.36
2023-11-23T15:43:45.526Z,7.36
2023-11-23T15:45:18.991Z,7.37
2023-11-23T15:46:52.376Z,7.37
2023-11-23T15:48:25.412Z,7.39
2023-11-23T15:49:58.444Z,7.37
2023-11-23T15:51:32.532Z,7.39
2023-11-23T15:53:05.542Z,7.41
2023-11-23T15:54:38.863Z,7.44
2023-11-23T15:56:15.839Z,7.49
2023-11-23T15:57:48.836Z,7.46
2023-11-23T15:59:21.747Z,7.45
2023-11-23T16:00:54.556Z,7.43
2023-11-23T16:02:27.488Z,7.42
2023-11-23T16:04:00.937Z,7.38
2023-11-23T16:05:34.105Z,7.37
2023-11-23T16:07:07.046Z,7.39
2023-11-23T16:08:39.994Z,7.42
2023-11-23T16:10:12.993Z,7.41
2023-11-23T16:11:46.497Z,7.42
2023-11-23T16:13:19.395Z,7.43
2023-11-23T16:14:53.001Z,7.44
2023-11-23T16:16:26.677Z,7.45
2023-11-23T16:17:59.624Z,7.47
2023-11-23T16:19:32.661Z,7.49
2023-11-23T16:21:07.240Z,7.50
2023-11-23T16:22:40.143Z,7.51
2023-11-23T16:24:13.373Z,7.50
2023-11-23T16:25:46.552Z,7.49
2023-11-23T16:27:19.457Z,7.50
2023-11-23T16:28:52.527Z,7.49
2023-11-23T16:30:26.008Z,7.50
2023-11-23T16:31:59.216Z,7.49
2023-11-23T16:33:32.248Z,7.50
2023-11-23T16:35:08.184Z,7.44
2023-11-23T16:36:41.204Z,7.42
2023-11-23T16:38:14.283Z,7.42
2023-11-23T16:39:47.191Z,7.44
2023-11-23T16:41:20.087Z,7.45
2023-11-23T16:42:53.239Z,7.47
2023-11-23T16:44:26.537Z,7.48
2023-11-23T16:45:59.617Z,7.52
2023-11-23T16:47:32.816Z,7.52
2023-11-23T16:49:05.897Z,7.51
2023-11-23T16:50:39.027Z,7.52
2023-11-23T16:52:12.083Z,7.50
2023-11-23T16:53:45.578Z,7.50
2023-11-23T16:55:18.959Z,7.45
2023-11-23T16:56:52.053Z,7.45
2023-11-23T16:58:24.915Z,7.49
2023-11-23T16:59:57.828Z,7.49
2023-11-23T17:01:33.684Z,7.46
2023-11-23T17:03:06.856Z,7.41
2023-11-23T17:04:39.923Z,7.42
2023-11-23T17:06:13.128Z,7.40
2023-11-23T17:07:46.163Z,7.40
2023-11-23T17:09:19.356Z,7.35
2023-11-23T17:10:52.548Z,7.34
2023-11-23T17:12:25.502Z,7.30
2023-11-23T17:13:58.679Z,7.25
2023-11-23T17:15:31.611Z,7.24
2023-11-23T17:17:04.929Z,7.25
2023-11-23T17:18:37.907Z,7.23
2023-11-23T17:20:11.517Z,7.24
2023-11-23T17:21:44.792Z,7.27
2023-11-23T17:23:17.841Z,7.22
2023-11-23T17:24:50.948Z,7.21
2023-11-23T17:26:24.134Z,7.14
2023-11-23T17:27:58.114Z,7.14
2023-11-23T17:29:31.140Z,7.13
2023-11-23T17:31:04.171Z,7.14
2023-11-23T17:32:38.714Z,7.12
2023-11-23T17:34:13.086Z,7.09
2023-11-23T17:35:47.278Z,7.11
2023-11-23T17:37:20.393Z,7.09
2023-11-23T17:38:53.221Z,7.11
2023-11-23T17:40:26.298Z,7.11
2023-11-23T17:41:59.373Z,7.12
2023-11-23T17:43:32.438Z,7.12
2023-11-23T17:45:05.978Z,7.11
2023-11-23T17:46:38.963Z,7.13
2023-11-23T17:48:12.173Z,7.16
2023-11-23T17:49:45.256Z,7.17
2023-11-23T17:51:18.183Z,7.22
2023-11-23T17:52:51.157Z,7.24
2023-11-23T17:54:24.186Z,7.21
2023-11-23T17:55:57.365Z,7.23
2023-11-23T17:57:30.221Z,7.21
2023-11-23T17:59:14.123Z,7.27
2023-11-23T18:00:56.576Z,7.26
2023-11-23T18:02:29.878Z,7.28
2023-11-23T18:04:02.882Z,7.26
2023-11-23T18:05:35.781Z,7.20
2023-11-23T18:07:08.790Z,7.26
2023-11-23T18:08:41.874Z,7.27
2023-11-23T18:10:15.168Z,7.25
2023-11-23T18:11:48.221Z,7.24
2023-11-23T18:13:21.198Z,7.21
2023-11-23T18:14:54.823Z,7.26
2023-11-23T18:16:28.003Z,7.28
2023-11-23T18:18:02.255Z,7.28
2023-11-23T18:19:36.127Z,7.28
2023-11-23T18:21:09.107Z,7.28
2023-11-23T18:22:42.118Z,7.31
2023-11-23T18:24:15.024Z,7.33
2023-11-23T18:25:48.006Z,7.33
2023-11-23T18:27:21.063Z,7.32
2023-11-23T18:28:54.072Z,7.33
2023-11-23T18:30:26.985Z,7.32
2023-11-23T18:32:00.171Z,7.33
2023-11-23T18:33:33.598Z,7.36
2023-11-23T18:35:07.029Z,7.37
2023-11-23T18:36:40.009Z,7.40
2023-11-23T18:38:12.997Z,7.43
2023-11-23T18:39:46.007Z,7.43
2023-11-23T18:41:19.198Z,7.43
2023-11-23T18:42:52.127Z,7.42
2023-11-23T18:44:25.385Z,7.41
2023-11-23T18:45:58.745Z,7.41
2023-11-23T18:47:32.494Z,7.43
2023-11-23T18:49:06.058Z,7.44
2023-11-23T18:50:39.084Z,7.42
2023-11-23T18:52:11.945Z,7.42
2023-11-23T18:53:45.155Z,7.40
2023-11-23T18:55:18.265Z,7.41
2023-11-23T18:56:52.216Z,7.41
2023-11-23T18:58:25.269Z,7.42
2023-11-23T18:59:58.181Z,7.47
2023-11-23T19:01:31.222Z,7.46
2023-11-23T19:03:04.540Z,7.45
2023-11-23T19:04:37.544Z,7.46
2023-11-23T19:06:10.569Z,7.44
2023-11-23T19:07:43.814Z,7.45
2023-11-23T19:09:16.694Z,7.45
2023-11-23T19:10:49.926Z,7.44
2023-11-23T19:12:23.259Z,7.44
2023-11-23T19:13:57.105Z,7.44
2023-11-23T19:15:30.630Z,7.43
2023-11-23T19:17:03.613Z,7.43
2023-11-23T19:18:37.257Z,7.37
2023-11-23T19:20:12.184Z,7.41
2023-11-23T19:21:45.486Z,7.43
2023-11-23T19:23:19.023Z,7.44
2023-11-23T19:24:52.848Z,7.44
2023-11-23T19:26:26.441Z,7.47
2023-11-23T19:28:00.145Z,7.47
2023-11-23T19:29:42.879Z,7.49
2023-11-23T19:31:21.778Z,7.46
2023-11-23T19:32:56.141Z,7.49
2023-11-23T19:34:29.801Z,7.47
2023-11-23T19:36:03.290Z,7.50
2023-11-23T19:37:39.325Z,7.52
2023-11-23T19:39:15.599Z,7.54
2023-11-23T19:40:49.263Z,7.52
2023-11-23T19:42:22.879Z,7.53
2023-11-23T19:43:56.278Z,7.53
2023-11-23T19:45:29.662Z,7.54
2023-11-23T19:47:03.076Z,7.56
2023-11-23T19:48:36.694Z,7.58
2023-11-23T19:50:11.033Z,7.60
2023-11-23T19:51:45.685Z,7.61
2023-11-23T19:53:21.605Z,7.63
2023-11-23T19:54:54.893Z,7.62
2023-11-23T19:56:27.851Z,7.65
2023-11-23T19:58:00.865Z,7.65
2023-11-23T19:59:33.993Z,7.68
2023-11-23T20:01:07.014Z,7.73
2023-11-23T20:02:40.025Z,7.77
2023-11-23T20:04:13.218Z,7.78
2023-11-23T20:05:46.219Z,7.76
2023-11-23T20:07:19.396Z,7.76
2023-11-23T20:08:52.752Z,7.81
2023-11-23T20:10:25.732Z,7.83
2023-11-23T20:11:59.105Z,7.82
2023-11-23T20:13:32.102Z,7.82
2023-11-23T20:15:05.899Z,7.81
2023-11-23T20:16:39.609Z,7.85
2023-11-23T20:18:12.908Z,7.83
2023-11-23T20:19:45.960Z,7.84
2023-11-23T20:21:19.562Z,7.84
2023-11-23T20:22:52.436Z,7.82
2023-11-23T20:24:25.456Z,7.81
2023-11-23T20:25:58.381Z,7.84
2023-11-23T20:27:31.441Z,7.85
2023-11-23T20:29:04.424Z,7.86
2023-11-23T20:30:37.979Z,7.87
2023-11-23T20:32:11.144Z,7.85
2023-11-23T20:33:44.255Z,7.84
2023-11-23T20:35:17.392Z,7.84
2023-11-23T20:36:50.472Z,7.83
2023-11-23T20:38:23.560Z,7.83
2023-11-23T20:39:56.483Z,7.86
2023-11-23T20:41:29.512Z,7.84
2023-11-23T20:43:02.555Z,7.85
2023-11-23T20:44:35.590Z,7.86
2023-11-23T20:46:08.732Z,7.85
2023-11-23T20:47:41.759Z,7.84
2023-11-23T20:49:14.858Z,7.85
2023-11-23T20:50:48.085Z,7.83
2023-11-23T20:52:21.274Z,7.88
2023-11-23T20:53:54.332Z,7.88
2023-11-23T20:55:27.686Z,7.86
2023-11-23T20:57:01.381Z,7.89
2023-11-23T20:58:34.778Z,7.90
2023-11-23T21:00:09.392Z,7.90
2023-11-23T21:01:43.636Z,7.90
2023-11-23T21:03:17.809Z,7.93
2023-11-23T21:04:51.529Z,7.90
2023-11-23T21:06:25.087Z,7.89
2023-11-23T21:07:58.695Z,7.86
2023-11-23T21:09:34.902Z,7.86
2023-11-23T21:11:07.792Z,7.81
2023-11-23T21:12:41.166Z,7.80
2023-11-23T21:14:14.098Z,7.81
2023-11-23T21:15:47.014Z,7.82
2023-11-23T21:17:20.004Z,7.84
2023-11-23T21:18:53.030Z,7.82
2023-11-23T21:20:26.016Z,7.82
2023-11-23T21:21:59.055Z,7.82
2023-11-23T21:23:35.346Z,7.82
2023-11-23T21:25:09.701Z,7.82
2023-11-23T21:26:42.760Z,7.85
2023-11-23T21:28:15.803Z,7.85
2023-11-23T21:29:49.023Z,7.86
2023-11-23T21:31:22.235Z,7.90
2023-11-23T21:32:55.473Z,7.90
2023-11-23T21:34:28.744Z,7.91
2023-11-23T21:36:02.189Z,7.94
2023-11-23T21:37:36.550Z,7.93
2023-11-23T21:39:09.712Z,7.93
2023-11-23T21:40:44.038Z,7.94
2023-11-23T21:42:17.112Z,7.93
2023-11-23T21:43:50.057Z,7.96
2023-11-23T21:45:23.319Z,7.99
2023-11-23T21:46:56.365Z,8.02
2023-11-23T21:48:29.275Z,8.06
2023-11-23T21:50:02.284Z,8.07
2023-11-23T21:51:35.866Z,8.08
2023-11-23T21:53:08.718Z,8.12
2023-11-23T21:54:50.118Z,8.14
2023-11-23T21:56:26.610Z,8.19
2023-11-23T21:57:59.766Z,8.21
2023-11-23T21:59:40.154Z,8.26
2023-11-23T22:01:13.341Z,8.30
2023-11-23T22:02:46.840Z,8.36
2023-11-23T22:04:20.398Z,8.38
2023-11-23T22:05:53.854Z,8.42
2023-11-23T22:07:27.192Z,8.44
2023-11-23T22:09:00.216Z,8.48
2023-11-23T22:10:33.333Z,8.47
2023-11-23T22:12:06.723Z,8.41
2023-11-23T22:13:39.875Z,8.36
2023-11-23T22:15:13.149Z,8.33